createdAt,value
2018-09-11T06:55:47.914Z,1704
2018-09-11T06:56:28.699Z,2584
2018-09-11T06:57:09.455Z,1380
2018-09-11T06:57:50.246Z,1324
2018-09-11T06:58:31.109Z,792
2018-09-11T06:59:11.913Z,524
2018-09-11T06:59:52.704Z,480
2018-09-11T07:00:33.497Z,488
2018-09-11T07:01:14.149Z,564
2018-09-11T07:01:54.965Z,700
2018-09-11T07:02:35.695Z,1512
2018-09-11T07:03:16.506Z,1024
2018-09-11T07:03:57.373Z,836
2018-09-11T07:04:38.080Z,780
2018-09-11T07:05:18.811Z,540
2018-09-11T07:05:59.649Z,612
2018-09-11T07:06:40.402Z,668
2018-09-11T07:07:21.084Z,548
2018-09-11T07:08:01.786Z,576
2018-09-11T07:08:42.570Z,576
2018-09-11T07:09:23.376Z,556
2018-09-11T07:10:04.146Z,572
2018-09-11T07:10:44.964Z,608
2018-09-11T07:11:25.691Z,784
2018-09-11T07:12:06.400Z,832
2018-09-11T07:12:47.128Z,812
2018-09-11T07:13:27.934Z,1124
2018-09-11T07:14:08.741Z,996
2018-09-11T07:14:49.535Z,1328
2018-09-11T07:15:30.288Z,1260
2018-09-11T07:16:11.118Z,1032
2018-09-11T07:16:51.937Z,904
2018-09-11T07:17:32.693Z,1260
2018-09-11T07:18:13.446Z,2504
2018-09-11T07:18:54.195Z,2516
2018-09-11T07:19:35.061Z,1560
2018-09-11T07:20:15.974Z,784
2018-09-11T07:20:56.551Z,632
2018-09-11T07:21:37.344Z,660
2018-09-11T07:22:18.056Z,716
2018-09-11T07:22:58.790Z,936
2018-09-11T07:23:39.578Z,888
2018-09-11T07:24:20.303Z,880
2018-09-11T07:25:01.029Z,848
2018-09-11T07:25:41.756Z,972
2018-09-11T07:26:22.557Z,1044
2018-09-11T07:27:03.363Z,1040
2018-09-11T07:27:44.120Z,1068
2018-09-11T07:28:24.905Z,996
2018-09-11T07:29:05.746Z,996
2018-09-11T07:29:46.503Z,896
2018-09-11T07:30:27.342Z,932
2018-09-11T07:31:08.029Z,984
2018-09-11T07:31:48.856Z,992
2018-09-11T07:32:29.655Z,988
2018-09-11T07:33:10.331Z,980
2018-09-11T07:33:51.068Z,964
2018-09-11T07:34:31.822Z,940
2018-09-11T07:35:12.616Z,912
2018-09-11T07:35:53.455Z,900
2018-09-11T07:36:34.303Z,888
2018-09-11T07:37:15.026Z,896
2018-09-11T07:37:55.811Z,896
2018-09-11T07:38:36.479Z,880
2018-09-11T07:39:17.257Z,860
2018-09-11T07:39:58.060Z,844
2018-09-11T07:40:38.767Z,824
2018-09-11T07:41:19.524Z,812
2018-09-11T07:42:00.358Z,804
2018-09-11T07:42:41.102Z,792
2018-09-11T07:43:21.957Z,784
2018-09-11T07:44:02.699Z,776
2018-09-11T07:44:43.440Z,772
2018-09-11T07:45:24.181Z,764
2018-09-11T07:46:04.961Z,760
2018-09-11T07:46:45.736Z,752
2018-09-11T07:47:26.567Z,752
2018-09-11T07:48:07.302Z,744
2018-09-11T07:48:48.053Z,740
2018-09-11T07:49:28.924Z,724
2018-09-11T07:50:09.642Z,700
2018-09-11T07:50:50.360Z,684
2018-09-11T07:51:31.137Z,672
2018-09-11T07:52:11.916Z,660
2018-09-11T07:52:52.725Z,640
2018-09-11T07:53:33.499Z,636
2018-09-11T07:54:14.285Z,620
2018-09-11T07:54:55.019Z,612
2018-09-11T07:55:35.769Z,596
2018-09-11T07:56:16.541Z,588
2018-09-11T07:56:57.357Z,576
2018-09-11T07:57:38.103Z,568
2018-09-11T07:58:18.792Z,564
2018-09-11T07:58:59.598Z,556
2018-09-11T07:59:40.396Z,552
2018-09-11T08:00:21.226Z,544
2018-09-11T08:01:01.965Z,532
2018-09-11T08:01:42.724Z,524
2018-09-11T08:02:23.578Z,520
2018-09-11T08:03:04.360Z,520
2018-09-11T08:03:45.102Z,512
2018-09-11T08:04:25.845Z,512
2018-09-11T08:05:06.625Z,508
2018-09-11T08:05:47.437Z,504
2018-09-11T08:06:28.863Z,500
2018-09-11T08:07:09.627Z,500
2018-09-11T08:07:50.493Z,492
2018-09-11T08:08:31.298Z,488
2018-09-11T08:09:12.080Z,480
2018-09-11T08:09:52.813Z,476
2018-09-11T08:10:33.549Z,472
2018-09-11T08:11:14.282Z,468
2018-09-11T08:11:55.126Z,464
2018-09-11T08:12:35.855Z,460
2018-09-11T08:13:16.709Z,456
2018-09-11T08:13:57.459Z,456
2018-09-11T08:14:38.178Z,452
2018-09-11T08:15:19.017Z,452
2018-09-11T08:15:59.805Z,448
2018-09-11T08:16:40.591Z,444
2018-09-11T08:17:21.315Z,440
2018-09-11T08:18:02.072Z,436
2018-09-11T08:18:42.926Z,436
2018-09-11T08:19:23.714Z,436
2018-09-11T08:20:04.491Z,432
2018-09-11T08:20:45.239Z,428
2018-09-11T08:21:25.946Z,428
2018-09-11T08:22:06.647Z,432
2018-09-11T08:22:47.483Z,428
2018-09-11T08:23:28.202Z,432
2018-09-11T08:24:08.934Z,428
2018-09-11T08:24:49.728Z,424
2018-09-11T08:25:30.499Z,428
2018-09-11T08:26:11.339Z,428
2018-09-11T08:26:52.084Z,424
2018-09-11T08:27:32.872Z,424
2018-09-11T08:28:13.607Z,420
2018-09-11T08:28:54.418Z,416
2018-09-11T08:29:35.242Z,416
2018-09-11T08:30:16.035Z,416
2018-09-11T08:30:56.839Z,412
2018-09-11T08:31:37.542Z,412
2018-09-11T08:32:18.319Z,412
2018-09-11T08:32:59.150Z,412
2018-09-11T08:33:39.913Z,408
2018-09-11T08:34:20.609Z,404
2018-09-11T08:35:01.358Z,400
2018-09-11T08:35:42.124Z,400
2018-09-11T08:36:22.966Z,400
2018-09-11T08:37:03.691Z,396
2018-09-11T08:37:44.452Z,396
2018-09-11T08:38:25.269Z,392
2018-09-11T08:39:06.085Z,392
2018-09-11T08:39:46.847Z,388
2018-09-11T08:40:27.589Z,388
2018-09-11T08:41:08.497Z,384
2018-09-11T08:41:49.226Z,384
2018-09-11T08:42:29.970Z,384
2018-09-11T08:43:10.674Z,384
2018-09-11T08:43:51.443Z,384
2018-09-11T08:44:32.274Z,384
2018-09-11T08:45:13.055Z,384
2018-09-11T08:45:53.879Z,384
2018-09-11T08:46:34.685Z,388
2018-09-11T08:47:15.415Z,384
2018-09-11T08:47:56.193Z,384
2018-09-11T08:48:36.961Z,384
2018-09-11T08:49:17.784Z,380
2018-09-11T08:49:58.499Z,380
2018-09-11T08:50:39.221Z,380
2018-09-11T08:51:20.039Z,380
2018-09-11T08:52:00.880Z,376
2018-09-11T08:52:41.639Z,372
2018-09-11T08:53:22.362Z,376
2018-09-11T08:54:03.179Z,372
2018-09-11T08:54:43.939Z,372
2018-09-11T08:55:24.697Z,372
2018-09-11T08:56:05.426Z,372
2018-09-11T08:56:46.173Z,368
2018-09-11T08:57:26.959Z,368
2018-09-11T08:58:07.735Z,364
2018-09-11T08:58:48.468Z,360
2018-09-11T08:59:29.281Z,364
2018-09-11T09:00:10.049Z,364
2018-09-11T09:00:50.858Z,364
2018-09-11T09:01:31.681Z,360
2018-09-11T09:02:12.420Z,364
2018-09-11T09:02:53.146Z,360
2018-09-11T09:03:33.899Z,364
2018-09-11T09:04:14.733Z,360
2018-09-11T09:04:55.566Z,368
2018-09-11T09:05:36.328Z,368
2018-09-11T09:06:17.044Z,372
2018-09-11T09:06:57.874Z,376
2018-09-11T09:07:38.708Z,384
2018-09-11T09:08:19.460Z,412
2018-09-11T09:09:00.171Z,452
2018-09-11T09:09:40.995Z,492
2018-09-11T09:10:21.805Z,496
2018-09-11T09:11:02.580Z,484
2018-09-11T09:11:43.299Z,468
2018-09-11T09:12:24.110Z,460
2018-09-11T09:13:04.919Z,440
2018-09-11T09:13:45.700Z,428
2018-09-11T09:14:26.531Z,412
2018-09-11T09:15:07.321Z,404
2018-09-11T09:15:48.099Z,392
2018-09-11T09:16:28.877Z,384
2018-09-11T09:17:09.585Z,364
2018-09-11T09:17:50.363Z,368
2018-09-11T09:18:31.100Z,360
2018-09-11T09:19:11.903Z,352
2018-09-11T09:19:52.690Z,348
2018-09-11T09:20:33.503Z,348
2018-09-11T09:21:14.287Z,344
2018-09-11T09:21:55.052Z,344
2018-09-11T09:22:35.795Z,344
2018-09-11T09:23:16.592Z,344
2018-09-11T09:23:57.382Z,344
2018-09-11T09:24:38.139Z,344
2018-09-11T09:25:18.880Z,348
2018-09-11T09:25:59.688Z,352
2018-09-11T09:26:40.519Z,356
2018-09-11T09:27:21.325Z,356
2018-09-11T09:28:02.030Z,360
2018-09-11T09:28:42.778Z,364
2018-09-11T09:29:23.503Z,360
2018-09-11T09:30:04.335Z,360
2018-09-11T09:30:45.137Z,360
2018-09-11T09:31:25.955Z,368
2018-09-11T09:32:06.725Z,364
2018-09-11T09:32:47.513Z,364
2018-09-11T09:33:28.329Z,368
2018-09-11T09:34:09.118Z,368
2018-09-11T09:34:49.852Z,368
2018-09-11T09:35:30.603Z,368
2018-09-11T09:36:11.344Z,368
2018-09-11T09:36:52.187Z,368
2018-09-11T09:37:32.985Z,368
2018-09-11T09:38:13.783Z,364
2018-09-11T09:38:54.592Z,368
2018-09-11T09:39:35.311Z,360
2018-09-11T09:40:16.046Z,360
2018-09-11T09:40:56.813Z,356
2018-09-11T09:41:37.633Z,356
2018-09-11T09:42:18.390Z,364
2018-09-11T09:42:59.177Z,364
2018-09-11T09:43:39.949Z,368
2018-09-11T09:44:20.786Z,376
2018-09-11T09:45:01.620Z,376
2018-09-11T09:45:42.305Z,380
2018-09-11T09:46:23.142Z,380
2018-09-11T09:47:03.939Z,376
2018-09-11T09:47:44.661Z,376
2018-09-11T09:48:25.398Z,376
2018-09-11T09:49:06.160Z,364
2018-09-11T09:49:46.951Z,360
2018-09-11T09:50:27.748Z,336
2018-09-11T09:51:08.509Z,320
2018-09-11T09:51:49.313Z,308
2018-09-11T09:52:30.119Z,316
2018-09-11T09:53:10.947Z,336
2018-09-11T09:53:51.693Z,360
2018-09-11T09:54:32.435Z,364
2018-09-11T09:55:13.197Z,368
2018-09-11T09:55:53.987Z,376
2018-09-11T09:56:34.779Z,388
2018-09-11T09:57:15.620Z,396
2018-09-11T09:57:56.416Z,400
2018-09-11T09:58:37.151Z,396
2018-09-11T09:59:17.958Z,400
2018-09-11T09:59:58.760Z,396
2018-09-11T10:00:39.447Z,376
2018-09-11T10:01:20.189Z,392
2018-09-11T10:02:00.907Z,372
2018-09-11T10:02:41.713Z,380
2018-09-11T10:03:22.540Z,360
2018-09-11T10:04:03.381Z,376
2018-09-11T10:04:44.197Z,372
2018-09-11T10:05:24.879Z,372
2018-09-11T10:06:05.611Z,372
2018-09-11T10:06:46.365Z,376
2018-09-11T10:07:27.160Z,376
2018-09-11T10:08:07.957Z,376
2018-09-11T10:08:48.669Z,376
2018-09-11T10:09:29.464Z,372
2018-09-11T10:10:10.294Z,380
2018-09-11T10:10:51.067Z,376
2018-09-11T10:11:31.808Z,372
2018-09-11T10:12:12.536Z,376
2018-09-11T10:12:53.322Z,376
2018-09-11T10:13:34.058Z,376
2018-09-11T10:14:14.882Z,380
2018-09-11T10:14:55.663Z,380
2018-09-11T10:15:36.468Z,380
2018-09-11T10:16:17.189Z,432
2018-09-11T10:16:57.976Z,436
2018-09-11T10:17:38.848Z,364
2018-09-11T10:18:19.506Z,380
2018-09-11T10:19:00.248Z,380
2018-09-11T10:19:40.967Z,380
2018-09-11T10:20:21.749Z,380
2018-09-11T10:21:02.542Z,380
2018-09-11T10:21:43.303Z,380
2018-09-11T10:22:24.053Z,380
2018-09-11T10:23:04.920Z,380
2018-09-11T10:23:45.756Z,376
2018-09-11T10:24:26.554Z,360
2018-09-11T10:25:07.307Z,368
2018-09-11T10:25:48.103Z,368
2018-09-11T10:26:28.915Z,376
2018-09-11T10:27:09.620Z,384
2018-09-11T10:27:50.349Z,384
2018-09-11T10:28:31.097Z,384
2018-09-11T10:29:11.857Z,388
2018-09-11T10:29:52.679Z,388
2018-09-11T10:30:33.495Z,396
2018-09-11T10:31:14.202Z,396
2018-09-11T10:31:54.958Z,396
2018-09-11T10:32:35.689Z,392
2018-09-11T10:33:16.473Z,396
2018-09-11T10:33:57.361Z,396
2018-09-11T10:34:38.099Z,396
2018-09-11T10:35:18.846Z,408
2018-09-11T10:35:59.647Z,416
2018-09-11T10:36:40.423Z,424
2018-09-11T10:37:21.261Z,424
2018-09-11T10:38:01.966Z,424
2018-09-11T10:38:42.684Z,432
2018-09-11T10:39:23.520Z,424
2018-09-11T10:40:04.234Z,428
2018-09-11T10:40:45.042Z,408
2018-09-11T10:41:25.897Z,408
2018-09-11T10:42:06.615Z,308
2018-09-11T10:42:47.380Z,284
2018-09-11T10:43:28.223Z,332
2018-09-11T10:44:08.949Z,312
2018-09-11T10:44:49.697Z,288
2018-09-11T10:45:30.445Z,328
2018-09-11T10:46:11.224Z,324
2018-09-11T10:46:52.092Z,312
2018-09-11T10:47:32.881Z,324
2018-09-11T10:48:13.710Z,356
2018-09-11T10:48:54.531Z,424
2018-09-11T10:49:35.235Z,472
2018-09-11T10:50:16.008Z,488
2018-09-11T10:50:56.798Z,488
2018-09-11T10:51:37.591Z,492
2018-09-11T10:52:18.355Z,500
2018-09-11T10:52:59.171Z,408
2018-09-11T10:53:39.991Z,360
2018-09-11T10:54:20.873Z,348
2018-09-11T10:55:01.546Z,332
2018-09-11T10:55:42.288Z,332
2018-09-11T10:56:23.124Z,360
2018-09-11T10:57:03.950Z,396
2018-09-11T10:57:44.736Z,392
2018-09-11T10:58:25.476Z,400
2018-09-11T10:59:06.185Z,428
2018-09-11T10:59:46.996Z,364
2018-09-11T11:00:27.796Z,400
2018-09-11T11:01:08.466Z,428
2018-09-11T11:01:49.321Z,440
2018-09-11T11:02:30.185Z,440
2018-09-11T11:03:11.075Z,424
2018-09-11T11:03:51.795Z,428
2018-09-11T11:04:32.569Z,420
2018-09-11T11:05:13.296Z,448
2018-09-11T11:05:54.114Z,424
2018-09-11T11:06:34.948Z,388
2018-09-11T11:07:15.718Z,368
2018-09-11T11:07:56.499Z,412
2018-09-11T11:08:37.267Z,416
2018-09-11T11:09:18.073Z,456
2018-09-11T11:09:58.897Z,456
2018-09-11T11:10:39.657Z,452
2018-09-11T11:11:20.413Z,456
2018-09-11T11:12:01.186Z,428
2018-09-11T11:12:41.966Z,376
2018-09-11T11:13:22.748Z,388
2018-09-11T11:14:03.443Z,408
2018-09-11T11:14:44.247Z,392
2018-09-11T11:15:25.040Z,420
2018-09-11T11:16:05.870Z,424
2018-09-11T11:16:46.625Z,432
2018-09-11T11:17:27.412Z,452
2018-09-11T11:18:08.161Z,456
2018-09-11T11:18:48.901Z,368
2018-09-11T11:19:29.623Z,412
2018-09-11T11:20:10.375Z,440
2018-09-11T11:20:51.124Z,408
2018-09-11T11:21:31.969Z,452
2018-09-11T11:22:12.759Z,444
2018-09-11T11:22:53.599Z,440
2018-09-11T11:23:34.364Z,392
2018-09-11T11:24:15.086Z,368
2018-09-11T11:24:55.827Z,320
2018-09-11T11:25:36.651Z,316
2018-09-11T11:26:17.419Z,296
2018-09-11T11:26:58.191Z,356
2018-09-11T11:27:39.097Z,360
2018-09-11T11:28:19.899Z,376
2018-09-11T11:29:00.708Z,472
2018-09-11T11:29:41.439Z,424
2018-09-11T11:30:22.176Z,376
2018-09-11T11:31:02.993Z,424
2018-09-11T11:31:43.777Z,396
2018-09-11T11:32:24.528Z,500
2018-09-11T11:33:05.269Z,508
2018-09-11T11:33:46.036Z,504
2018-09-11T11:34:26.871Z,428
2018-09-11T11:35:07.627Z,408
2018-09-11T11:35:48.394Z,396
2018-09-11T11:36:29.286Z,400
2018-09-11T11:37:10.100Z,420
2018-09-11T11:37:50.791Z,432
2018-09-11T11:38:31.539Z,464
2018-09-11T11:39:12.270Z,456
2018-09-11T11:39:53.050Z,444
2018-09-11T11:40:33.851Z,448
2018-09-11T11:41:14.744Z,444
2018-09-11T11:41:55.691Z,428
2018-09-11T11:42:36.380Z,336
2018-09-11T11:43:17.068Z,372
2018-09-11T11:43:57.967Z,472
2018-09-11T11:44:38.793Z,488
2018-09-11T11:45:19.509Z,456
2018-09-11T11:46:00.250Z,372
2018-09-11T11:46:41.031Z,328
2018-09-11T11:47:21.875Z,320
2018-09-11T11:48:02.728Z,332
2018-09-11T11:48:43.541Z,352
2018-09-11T11:49:24.276Z,392
2018-09-11T11:50:05.014Z,380
2018-09-11T11:50:45.784Z,400
2018-09-11T11:51:26.532Z,392
2018-09-11T11:52:07.397Z,356
2018-09-11T11:52:48.148Z,348
2018-09-11T11:53:28.880Z,364
2018-09-11T11:54:09.676Z,384
2018-09-11T11:54:50.484Z,408
2018-09-11T11:55:31.377Z,420
2018-09-11T11:56:12.000Z,476
2018-09-11T11:56:52.692Z,476
2018-09-11T11:57:33.468Z,512
2018-09-11T11:58:14.342Z,508
2018-09-11T11:58:55.127Z,416
2018-09-11T11:59:35.947Z,376
2018-09-11T12:00:16.644Z,344
2018-09-11T12:00:57.381Z,344
2018-09-11T12:01:38.284Z,344
2018-09-11T12:02:18.933Z,352
2018-09-11T12:02:59.685Z,360
2018-09-11T12:03:40.422Z,364
2018-09-11T12:04:21.219Z,396
2018-09-11T12:05:02.081Z,384
2018-09-11T12:05:42.869Z,352
2018-09-11T12:06:23.643Z,388
2018-09-11T12:07:04.467Z,460
2018-09-11T12:07:45.303Z,456
2018-09-11T12:08:26.058Z,492
2018-09-11T12:09:06.770Z,436
2018-09-11T12:09:47.519Z,368
2018-09-11T12:10:28.366Z,356
2018-09-11T12:11:09.162Z,340
2018-09-11T12:11:49.896Z,324
2018-09-11T12:12:30.636Z,332
2018-09-11T12:13:11.446Z,332
2018-09-11T12:13:52.299Z,332
2018-09-11T12:14:33.177Z,340
2018-09-11T12:15:13.934Z,352
2018-09-11T12:15:54.699Z,344
2018-09-11T12:16:35.449Z,372
2018-09-11T12:17:16.198Z,380
2018-09-11T12:17:57.010Z,388
2018-09-11T12:18:37.720Z,384
2018-09-11T12:19:18.455Z,388
2018-09-11T12:19:59.294Z,388
2018-09-11T12:20:40.077Z,380
2018-09-11T12:21:20.893Z,372
2018-09-11T12:22:01.622Z,364
2018-09-11T12:22:42.375Z,352
2018-09-11T12:23:23.194Z,340
2018-09-11T12:24:03.948Z,328
2018-09-11T12:24:44.695Z,320
2018-09-11T12:25:25.482Z,316
2018-09-11T12:26:06.236Z,316
2018-09-11T12:26:47.126Z,324
2018-09-11T12:27:27.926Z,336
2018-09-11T12:28:08.566Z,340
2018-09-11T12:28:49.380Z,372
2018-09-11T12:29:30.182Z,388
2018-09-11T12:30:10.982Z,396
2018-09-11T12:30:51.679Z,404
2018-09-11T12:31:32.430Z,408
2018-09-11T12:32:13.276Z,424
2018-09-11T12:32:54.177Z,416
2018-09-11T12:33:35.047Z,400
2018-09-11T12:34:15.915Z,396
2018-09-11T12:34:56.676Z,416
2018-09-11T12:35:37.420Z,424
2018-09-11T12:36:18.228Z,484
2018-09-11T12:36:59.010Z,480
2018-09-11T12:37:39.770Z,476
2018-09-11T12:38:20.528Z,500
2018-09-11T12:39:01.311Z,484
2018-09-11T12:39:42.137Z,412
2018-09-11T12:40:22.860Z,380
2018-09-11T12:41:03.579Z,400
2018-09-11T12:41:44.416Z,376
2018-09-11T12:42:25.193Z,352
2018-09-11T12:43:06.024Z,360
2018-09-11T12:43:46.728Z,364
2018-09-11T12:44:27.463Z,400
2018-09-11T12:45:08.336Z,384
2018-09-11T12:45:49.201Z,332
2018-09-11T12:46:30.191Z,356
2018-09-11T12:47:10.697Z,348
2018-09-11T12:47:51.753Z,364
2018-09-11T12:48:32.228Z,340
2018-09-11T12:49:12.932Z,336
2018-09-11T12:49:53.724Z,352
2018-09-11T12:50:34.445Z,336
2018-09-11T12:51:15.232Z,344
2018-09-11T12:51:55.914Z,332
2018-09-11T12:52:36.803Z,332
2018-09-11T12:53:17.465Z,320
2018-09-11T12:53:58.186Z,320
2018-09-11T12:54:38.988Z,320
2018-09-11T12:55:19.786Z,316
2018-09-11T12:56:00.655Z,316
2018-09-11T12:56:41.363Z,304
2018-09-11T12:57:22.096Z,304
2018-09-11T12:58:02.850Z,312
2018-09-11T12:58:43.586Z,304
2018-09-11T12:59:24.407Z,304
2018-09-11T13:00:05.255Z,292
2018-09-11T13:00:46.016Z,288
2018-09-11T13:01:26.724Z,288
2018-09-11T13:02:07.492Z,292
2018-09-11T13:02:48.301Z,280
2018-09-11T13:03:29.032Z,288
2018-09-11T13:04:09.824Z,284
2018-09-11T13:04:50.533Z,284
2018-09-11T13:05:31.371Z,288
2018-09-11T13:06:12.333Z,288
2018-09-11T13:06:53.168Z,284
2018-09-11T13:07:33.921Z,232
2018-09-11T13:08:14.740Z,232
2018-09-11T13:08:55.502Z,216
2018-09-11T13:09:36.301Z,252
2018-09-11T13:10:17.061Z,272
2018-09-11T13:10:57.827Z,272
2018-09-11T13:11:38.558Z,280
2018-09-11T13:12:19.448Z,284
2018-09-11T13:13:00.363Z,272
2018-09-11T13:13:41.132Z,280
2018-09-11T13:14:21.840Z,284
2018-09-11T13:15:02.561Z,284
2018-09-11T13:15:43.392Z,280
2018-09-11T13:16:24.128Z,280
2018-09-11T13:17:04.873Z,276
2018-09-11T13:17:45.621Z,276
2018-09-11T13:18:26.467Z,280
2018-09-11T13:19:07.257Z,280
2018-09-11T13:19:48.005Z,280
2018-09-11T13:20:28.741Z,284
2018-09-11T13:21:09.560Z,272
2018-09-11T13:21:50.431Z,276
2018-09-11T13:22:31.245Z,268
2018-09-11T13:23:12.032Z,240
2018-09-11T13:23:52.774Z,264
2018-09-11T13:24:33.565Z,288
2018-09-11T13:25:14.405Z,292
2018-09-11T13:25:55.247Z,296
2018-09-11T13:26:36.123Z,304
2018-09-11T13:27:16.813Z,304
2018-09-11T13:27:57.677Z,304
2018-09-11T13:28:38.493Z,304
2018-09-11T13:29:19.233Z,300
2018-09-11T13:29:59.987Z,300
2018-09-11T13:30:40.681Z,304
2018-09-11T13:31:21.423Z,308
2018-09-11T13:32:02.227Z,308
2018-09-11T13:32:42.996Z,292
2018-09-11T13:33:23.779Z,284
2018-09-11T13:34:04.599Z,272
2018-09-11T13:34:45.382Z,260
2018-09-11T13:35:26.219Z,260
2018-09-11T13:36:06.939Z,260
2018-09-11T13:36:47.791Z,260
2018-09-11T13:37:28.552Z,280
2018-09-11T13:38:09.322Z,296
2018-09-11T13:38:50.071Z,328
2018-09-11T13:39:30.829Z,312
2018-09-11T13:40:11.630Z,288
2018-09-11T13:40:52.497Z,288
2018-09-11T13:41:33.329Z,296
2018-09-11T13:42:14.119Z,300
2018-09-11T13:42:54.891Z,308
2018-09-11T13:43:35.607Z,320
2018-09-11T13:44:16.391Z,336
2018-09-11T13:44:57.179Z,336
2018-09-11T13:45:37.940Z,332
2018-09-11T13:46:18.703Z,332
2018-09-11T13:46:59.569Z,332
2018-09-11T13:47:40.420Z,344
2018-09-11T13:48:21.134Z,348
2018-09-11T13:49:01.856Z,400
2018-09-11T13:49:42.679Z,384
2018-09-11T13:50:23.505Z,404
2018-09-11T13:51:04.270Z,364
2018-09-11T13:51:45.065Z,364
2018-09-11T13:52:25.812Z,376
2018-09-11T13:53:06.620Z,372
2018-09-11T13:53:47.420Z,388
2018-09-11T13:54:28.215Z,364
2018-09-11T13:55:08.977Z,388
2018-09-11T13:55:49.778Z,360
2018-09-11T13:56:30.622Z,336
2018-09-11T13:57:11.472Z,320
2018-09-11T13:57:52.188Z,308
2018-09-11T13:58:32.921Z,304
2018-09-11T13:59:13.657Z,308
2018-09-11T13:59:54.451Z,300
2018-09-11T14:00:35.329Z,300
2018-09-11T14:01:16.136Z,312
2018-09-11T14:01:56.888Z,384
2018-09-11T14:02:37.641Z,356
2018-09-11T14:03:18.385Z,304
2018-09-11T14:03:59.141Z,312
2018-09-11T14:04:39.866Z,336
2018-09-11T14:05:20.711Z,272
2018-09-11T14:06:01.517Z,268
2018-09-11T14:06:42.356Z,256
2018-09-11T14:07:23.178Z,300
2018-09-11T14:08:03.977Z,276
2018-09-11T14:08:44.692Z,212
2018-09-11T14:09:25.459Z,220
2018-09-11T14:10:06.162Z,208
2018-09-11T14:10:46.998Z,216
2018-09-11T14:11:27.828Z,200
2018-09-11T14:12:08.574Z,212
2018-09-11T14:12:49.357Z,224
2018-09-11T14:13:30.185Z,220
2018-09-11T14:14:11.027Z,212
2018-09-11T14:14:51.778Z,220
2018-09-11T14:15:32.510Z,212
2018-09-11T14:16:13.238Z,220
2018-09-11T14:16:54.013Z,220
2018-09-11T14:17:34.852Z,240
2018-09-11T14:18:15.676Z,268
2018-09-11T14:18:56.481Z,248
2018-09-11T14:19:37.210Z,252
2018-09-11T14:20:18.046Z,228
2018-09-11T14:20:58.869Z,220
2018-09-11T14:21:39.652Z,244
2018-09-11T14:22:20.358Z,264
2018-09-11T14:23:01.049Z,320
2018-09-11T14:23:41.911Z,336
2018-09-11T14:24:22.687Z,332
2018-09-11T14:25:03.449Z,264
2018-09-11T14:25:44.224Z,244
2018-09-11T14:26:24.990Z,228
2018-09-11T14:27:05.807Z,220
2018-09-11T14:27:46.617Z,228
2018-09-11T14:28:27.386Z,232
2018-09-11T14:29:08.155Z,228
2018-09-11T14:29:48.959Z,240
2018-09-11T14:30:29.695Z,248
2018-09-11T14:31:10.439Z,252
2018-09-11T14:31:51.145Z,260
2018-09-11T14:32:31.946Z,264
2018-09-11T14:33:12.794Z,268
2018-09-11T14:33:53.578Z,268
2018-09-11T14:34:34.400Z,264
2018-09-11T14:35:15.081Z,268
2018-09-11T14:35:55.812Z,268
2018-09-11T14:36:36.595Z,260
2018-09-11T14:37:17.418Z,256
2018-09-11T14:37:58.172Z,240
2018-09-11T14:38:38.947Z,228
2018-09-11T14:39:19.753Z,212
2018-09-11T14:40:00.676Z,216
2018-09-11T14:40:41.484Z,224
2018-09-11T14:41:22.186Z,224
2018-09-11T14:42:02.938Z,224
2018-09-11T14:42:43.691Z,224
2018-09-11T14:43:24.462Z,228
2018-09-11T14:44:05.306Z,224
2018-09-11T14:44:46.114Z,224
2018-09-11T14:45:26.888Z,224
2018-09-11T14:46:07.606Z,232
2018-09-11T14:46:48.426Z,232
2018-09-11T14:47:29.271Z,232
2018-09-11T14:48:09.976Z,232
2018-09-11T14:48:50.696Z,220
2018-09-11T14:49:31.453Z,208
2018-09-11T14:50:12.244Z,196
2018-09-11T14:50:53.070Z,172
2018-09-11T14:51:33.935Z,164
2018-09-11T14:52:14.706Z,148
2018-09-11T14:52:55.484Z,136
2018-09-11T14:53:36.225Z,124
2018-09-11T14:54:17.071Z,120
2018-09-11T14:54:57.924Z,104
2018-09-11T14:55:38.702Z,104
2018-09-11T14:56:19.490Z,100
2018-09-11T14:57:00.358Z,100
2018-09-11T14:57:41.113Z,96
2018-09-11T14:58:21.917Z,100
2018-09-11T14:59:02.648Z,96
2018-09-11T14:59:43.436Z,96
2018-09-11T15:00:24.305Z,96
2018-09-11T15:01:04.987Z,96
2018-09-11T15:01:45.763Z,92
2018-09-11T15:02:26.551Z,92
2018-09-11T15:03:07.308Z,96
2018-09-11T15:03:48.105Z,96
2018-09-11T15:04:28.846Z,100
2018-09-11T15:05:09.624Z,92
2018-09-11T15:05:50.460Z,96
2018-09-11T15:06:31.258Z,100
2018-09-11T15:07:12.039Z,96
2018-09-11T15:07:52.858Z,96
2018-09-11T15:08:33.545Z,96
2018-09-11T15:09:14.422Z,96
2018-09-11T15:09:55.179Z,96
2018-09-11T15:10:35.972Z,96
2018-09-11T15:11:16.823Z,96
2018-09-11T15:11:57.589Z,88
2018-09-11T15:12:38.425Z,88
2018-09-11T15:13:19.288Z,88
2018-09-11T15:14:00.026Z,84
2018-09-11T15:14:40.762Z,84
2018-09-11T15:15:21.498Z,80
2018-09-11T15:16:02.348Z,80
2018-09-11T15:16:43.244Z,76
2018-09-11T15:17:24.059Z,76
2018-09-11T15:18:04.859Z,72
2018-09-11T15:18:45.637Z,68
2018-09-11T15:19:26.350Z,64
2018-09-11T15:20:07.175Z,64
2018-09-11T15:20:48.026Z,64
2018-09-11T15:21:28.778Z,60
2018-09-11T15:22:09.515Z,60
2018-09-11T15:22:50.987Z,56
2018-09-11T15:23:31.828Z,48
2018-09-11T15:24:12.753Z,48
2018-09-11T15:24:53.494Z,44
2018-09-11T15:25:34.239Z,40
2018-09-11T15:26:14.968Z,40
2018-09-11T15:26:55.754Z,40
2018-09-11T15:27:36.621Z,40
2018-09-11T15:28:17.400Z,40
2018-09-11T15:28:58.167Z,36
2018-09-11T15:29:38.897Z,40
2018-09-11T15:30:19.695Z,36
2018-09-11T15:31:00.546Z,32
2018-09-11T15:31:41.325Z,32
2018-09-11T15:32:22.141Z,32
2018-09-11T15:33:02.894Z,32
2018-09-11T15:33:43.698Z,32
2018-09-11T15:34:24.441Z,32
2018-09-11T15:35:05.179Z,32
2018-09-11T15:35:45.944Z,32
2018-09-11T15:36:26.796Z,28
2018-09-11T15:37:07.605Z,32
2018-09-11T15:37:48.354Z,28
2018-09-11T15:38:29.156Z,28
2018-09-11T15:39:09.933Z,28
2018-09-11T15:39:50.770Z,24
2018-09-11T15:40:31.590Z,24
2018-09-11T15:41:12.329Z,24
2018-09-11T15:41:53.089Z,20
2018-09-11T15:42:33.922Z,24
2018-09-11T15:43:14.745Z,24
2018-09-11T15:43:55.589Z,20
2018-09-11T15:44:36.329Z,20
2018-09-11T15:45:17.093Z,20
2018-09-11T15:45:57.868Z,20
2018-09-11T15:46:38.653Z,20
2018-09-11T15:47:19.447Z,16
2018-09-11T15:48:00.237Z,20
2018-09-11T15:48:41.040Z,16
2018-09-11T15:49:21.871Z,20
2018-09-11T15:50:02.708Z,20
2018-09-11T15:50:43.483Z,20
2018-09-11T15:51:24.224Z,16
2018-09-11T15:52:05.066Z,16
2018-09-11T15:52:45.832Z,16
2018-09-11T15:53:26.526Z,16
2018-09-11T15:54:07.247Z,12
2018-09-11T15:54:48.012Z,16
2018-09-11T15:55:28.893Z,12
2018-09-11T15:56:09.618Z,12
2018-09-11T15:56:50.344Z,16
2018-09-11T15:57:31.144Z,16
2018-09-11T15:58:11.962Z,12
2018-09-11T15:58:52.801Z,12
2018-09-11T15:59:33.564Z,12
2018-09-11T16:00:14.333Z,12
2018-09-11T16:00:55.090Z,12
2018-09-11T16:01:35.891Z,12
2018-09-11T16:02:16.746Z,12
2018-09-11T16:02:57.589Z,12
2018-09-11T16:03:38.404Z,12
2018-09-11T16:04:19.163Z,12
2018-09-11T16:04:59.955Z,12
2018-09-11T16:05:40.750Z,12
2018-09-11T16:06:21.487Z,12
2018-09-11T16:07:02.251Z,12
2018-09-11T16:07:42.917Z,12
2018-09-11T16:08:23.698Z,12
2018-09-11T16:09:04.494Z,8
2018-09-11T16:09:45.216Z,8
2018-09-11T16:10:26.032Z,12
2018-09-11T16:11:06.842Z,12
2018-09-11T16:11:47.637Z,8
2018-09-11T16:12:28.414Z,8
2018-09-11T16:13:09.130Z,12
2018-09-11T16:13:50.013Z,8
2018-09-11T16:14:30.790Z,12
2018-09-11T16:15:11.531Z,8
2018-09-11T16:15:52.242Z,8
2018-09-11T16:16:32.958Z,8
2018-09-11T16:17:13.796Z,8
2018-09-11T16:17:54.575Z,8
2018-09-11T16:18:35.407Z,8
2018-09-11T16:19:16.171Z,8
2018-09-11T16:19:56.914Z,8